sensor_id;sensor_type;location;lat;lon;timestamp;pressure;altitude;pressure_sealevel;temperature;humidity
14885;BME280;7534;50.762;7.000;2023-04-02T00:08:56;88324.53;;;-143.16;85.76
14885;BME280;7534;50.762;7.000;2023-04-02T00:11:35;88338.66;;;-143.16;85.89
14885;BME280;7534;50.762;7.000;2023-04-02T00:14:05;88270.03;;;-143.16;85.71
14885;BME280;7534;50.762;7.000;2023-04-02T00:16:38;88276.09;;;-143.16;85.36
14885;BME280;7534;50.762;7.000;2023-04-02T00:19:10;88247.81;;;-143.16;85.29
14885;BME280;7534;50.762;7.000;2023-04-02T00:21:40;88282.16;;;-143.16;84.81
14885;BME280;7534;50.762;7.000;2023-04-02T00:24:20;88302.34;;;-143.16;84.84
14885;BME280;7534;50.762;7.000;2023-04-02T00:26:49;88318.47;;;-143.16;85.52
14885;BME280;7534;50.762;7.000;2023-04-02T00:29:17;88334.63;;;-143.16;85.79
14885;BME280;7534;50.762;7.000;2023-04-02T00:31:57;88308.38;;;-143.16;86.18
14885;BME280;7534;50.762;7.000;2023-04-02T00:34:32;88326.56;;;-143.16;86.10
14885;BME280;7534;50.762;7.000;2023-04-02T00:37:01;88278.09;;;-143.16;86.19
14885;BME280;7534;50.762;7.000;2023-04-02T00:39:32;88346.75;;;-143.16;86.05
14885;BME280;7534;50.762;7.000;2023-04-02T00:41:59;88302.34;;;-143.16;86.34
14885;BME280;7534;50.762;7.000;2023-04-02T00:44:36;88350.78;;;-143.16;86.89
14885;BME280;7534;50.762;7.000;2023-04-02T00:47:30;88310.41;;;-143.16;87.28
14885;BME280;7534;50.762;7.000;2023-04-02T00:52:37;88350.78;;;-143.16;87.33
14885;BME280;7534;50.762;7.000;2023-04-02T00:55:13;88330.59;;;-143.16;87.74
14885;BME280;7534;50.762;7.000;2023-04-02T00:57:44;88346.75;;;-143.16;87.92
14885;BME280;7534;50.762;7.000;2023-04-02T01:00:34;88338.66;;;-143.16;88.16
14885;BME280;7534;50.762;7.000;2023-04-02T01:05:44;88344.72;;;-143.16;88.27
14885;BME280;7534;50.762;7.000;2023-04-02T01:08:43;88294.25;;;-143.16;88.56
14885;BME280;7534;50.762;7.000;2023-04-02T01:14:41;88360.88;;;-143.16;88.88
14885;BME280;7534;50.762;7.000;2023-04-02T01:17:42;88336.66;;;-143.16;89.38
14885;BME280;7534;50.762;7.000;2023-04-02T01:20:58;88364.91;;;-143.16;89.39
14885;BME280;7534;50.762;7.000;2023-04-02T01:26:38;88326.56;;;-143.16;89.05
14885;BME280;7534;50.762;7.000;2023-04-02T01:29:14;88334.63;;;-143.16;88.78
14885;BME280;7534;50.762;7.000;2023-04-02T01:31:44;88338.66;;;-143.16;89.05
14885;BME280;7534;50.762;7.000;2023-04-02T01:34:16;88375.00;;;-143.16;89.18
14885;BME280;7534;50.762;7.000;2023-04-02T01:37:14;88362.91;;;-143.16;89.50
14885;BME280;7534;50.762;7.000;2023-04-02T01:43:29;88308.38;;;-143.16;89.35
14885;BME280;7534;50.762;7.000;2023-04-02T01:46:04;88354.81;;;-143.16;88.90
14885;BME280;7534;50.762;7.000;2023-04-02T01:48:30;88328.56;;;-143.16;89.31
14885;BME280;7534;50.762;7.000;2023-04-02T01:50:59;88316.47;;;-143.16;89.63
14885;BME280;7534;50.762;7.000;2023-04-02T01:53:28;88348.75;;;-143.16;89.81
14885;BME280;7534;50.762;7.000;2023-04-02T01:55:59;88306.38;;;-143.16;89.60
14885;BME280;7534;50.762;7.000;2023-04-02T01:58:29;88308.38;;;-143.16;89.47
14885;BME280;7534;50.762;7.000;2023-04-02T02:03:28;88326.56;;;-143.16;88.95
14885;BME280;7534;50.762;7.000;2023-04-02T02:05:55;88366.94;;;-143.16;88.97
14885;BME280;7534;50.762;7.000;2023-04-02T02:09:00;88320.50;;;-143.16;88.91
14885;BME280;7534;50.762;7.000;2023-04-02T02:11:31;88342.72;;;-143.16;88.53
14885;BME280;7534;50.762;7.000;2023-04-02T02:13:59;88292.22;;;-143.16;88.64
14885;BME280;7534;50.762;7.000;2023-04-02T02:16:28;88266.00;;;-143.16;88.67
14885;BME280;7534;50.762;7.000;2023-04-02T02:19:00;88282.16;;;-143.16;88.53
14885;BME280;7534;50.762;7.000;2023-04-02T02:21:42;88302.34;;;-143.16;88.59
14885;BME280;7534;50.762;7.000;2023-04-02T02:24:25;88290.22;;;-143.16;88.39
14885;BME280;7534;50.762;7.000;2023-04-02T02:30:04;88344.72;;;-143.16;87.70
14885;BME280;7534;50.762;7.000;2023-04-02T02:32:45;88302.34;;;-143.16;87.54
14885;BME280;7534;50.762;7.000;2023-04-02T02:35:20;88324.53;;;-143.16;87.95
14885;BME280;7534;50.762;7.000;2023-04-02T02:38:19;88342.72;;;-143.16;88.29
14885;BME280;7534;50.762;7.000;2023-04-02T02:40:52;88316.47;;;-143.16;88.00
14885;BME280;7534;50.762;7.000;2023-04-02T02:43:19;88328.56;;;-143.16;88.13
14885;BME280;7534;50.762;7.000;2023-04-02T02:45:47;88336.66;;;-143.16;88.18
14885;BME280;7534;50.762;7.000;2023-04-02T02:48:18;88356.84;;;-143.16;88.52
14885;BME280;7534;50.762;7.000;2023-04-02T02:50:46;88373.00;;;-143.16;88.77
14885;BME280;7534;50.762;7.000;2023-04-02T02:53:20;88354.81;;;-143.16;88.49
14885;BME280;7534;50.762;7.000;2023-04-02T02:55:55;88328.56;;;-143.16;88.12
14885;BME280;7534;50.762;7.000;2023-04-02T02:58:30;88342.72;;;-143.16;88.29
14885;BME280;7534;50.762;7.000;2023-04-02T03:00:57;88340.69;;;-143.16;87.90
14885;BME280;7534;50.762;7.000;2023-04-02T03:03:27;88407.31;;;-143.16;87.94
14885;BME280;7534;50.762;7.000;2023-04-02T03:06:02;88395.19;;;-143.16;88.45
14885;BME280;7534;50.762;7.000;2023-04-02T03:08:46;88435.56;;;-143.16;89.11
14885;BME280;7534;50.762;7.000;2023-04-02T03:11:33;88439.59;;;-143.16;89.64
14885;BME280;7534;50.762;7.000;2023-04-02T03:14:43;88419.41;;;-143.16;89.61
14885;BME280;7534;50.762;7.000;2023-04-02T03:17:27;88429.50;;;-143.16;89.53
14885;BME280;7534;50.762;7.000;2023-04-02T03:20:25;88439.59;;;-143.16;89.76
14885;BME280;7534;50.762;7.000;2023-04-02T03:23:21;88445.66;;;-143.16;89.52
14885;BME280;7534;50.762;7.000;2023-04-02T03:26:22;88379.03;;;-143.16;89.94
14885;BME280;7534;50.762;7.000;2023-04-02T03:29:01;88407.31;;;-143.16;89.40
14885;BME280;7534;50.762;7.000;2023-04-02T03:31:38;88451.72;;;-143.16;89.65
14885;BME280;7534;50.762;7.000;2023-04-02T03:34:30;88433.56;;;-143.16;89.83
14885;BME280;7534;50.762;7.000;2023-04-02T03:40:14;88377.03;;;-143.16;89.25
14885;BME280;7534;50.762;7.000;2023-04-02T03:42:52;88443.66;;;-143.16;89.02
14885;BME280;7534;50.762;7.000;2023-04-02T03:45:28;88540.53;;;-143.16;88.88
14885;BME280;7534;50.762;7.000;2023-04-02T03:48:30;88492.09;;;-143.16;89.03
14885;BME280;7534;50.762;7.000;2023-04-02T03:51:26;88508.25;;;-143.16;89.11
14885;BME280;7534;50.762;7.000;2023-04-02T03:53:54;88417.41;;;-143.16;88.91
14885;BME280;7534;50.762;7.000;2023-04-02T03:56:31;88520.34;;;-143.16;88.89
14885;BME280;7534;50.762;7.000;2023-04-02T03:59:49;88516.31;;;-143.16;88.45
14885;BME280;7534;50.762;7.000;2023-04-02T04:02:38;88459.78;;;-143.16;88.50
14885;BME280;7534;50.762;7.000;2023-04-02T04:05:18;88477.97;;;-143.16;88.13
14885;BME280;7534;50.762;7.000;2023-04-02T04:07:46;88467.88;;;-143.16;88.21
14885;BME280;7534;50.762;7.000;2023-04-02T04:10:20;88492.09;;;-143.16;87.56
14885;BME280;7534;50.762;7.000;2023-04-02T04:12:48;88459.78;;;-143.16;87.43
14885;BME280;7534;50.762;7.000;2023-04-02T04:15:25;88447.69;;;-143.16;87.58
14885;BME280;7534;50.762;7.000;2023-04-02T04:21:04;88463.84;;;-143.16;86.73
14885;BME280;7534;50.762;7.000;2023-04-02T04:23:39;88475.94;;;-143.16;86.50
14885;BME280;7534;50.762;7.000;2023-04-02T04:26:38;88484.03;;;-143.16;86.65
14885;BME280;7534;50.762;7.000;2023-04-02T04:32:28;88506.22;;;-143.16;85.85
14885;BME280;7534;50.762;7.000;2023-04-02T04:37:45;88530.47;;;-143.16;85.87
14885;BME280;7534;50.762;7.000;2023-04-02T04:40:25;88514.31;;;-143.16;86.02
14885;BME280;7534;50.762;7.000;2023-04-02T04:42:57;88498.16;;;-143.16;86.26
14885;BME280;7534;50.762;7.000;2023-04-02T04:45:40;88591.03;;;-143.16;86.23
14885;BME280;7534;50.762;7.000;2023-04-02T04:48:20;88532.47;;;-143.16;86.00
14885;BME280;7534;50.762;7.000;2023-04-02T04:50:59;88536.50;;;-143.16;86.06
14885;BME280;7534;50.762;7.000;2023-04-02T04:53:29;88534.50;;;-143.16;86.46
14885;BME280;7534;50.762;7.000;2023-04-02T04:56:02;88572.84;;;-143.16;86.23
14885;BME280;7534;50.762;7.000;2023-04-02T04:58:53;88597.06;;;-143.16;86.02
14885;BME280;7534;50.762;7.000;2023-04-02T05:01:42;88609.19;;;-143.16;86.16
14885;BME280;7534;50.762;7.000;2023-04-02T05:04:25;88568.81;;;-143.16;86.32
14885;BME280;7534;50.762;7.000;2023-04-02T05:07:20;88627.38;;;-143.16;86.38
14885;BME280;7534;50.762;7.000;2023-04-02T05:10:16;88560.75;;;-143.16;86.55
14885;BME280;7534;50.762;7.000;2023-04-02T05:13:10;88591.03;;;-143.16;86.64
14885;BME280;7534;50.762;7.000;2023-04-02T05:16:00;88597.06;;;-143.16;86.89
14885;BME280;7534;50.762;7.000;2023-04-02T05:18:40;88586.97;;;-143.16;86.85
14885;BME280;7534;50.762;7.000;2023-04-02T05:21:51;88540.53;;;-143.16;86.86
14885;BME280;7534;50.762;7.000;2023-04-02T05:24:38;88530.47;;;-143.16;86.66
14885;BME280;7534;50.762;7.000;2023-04-02T05:27:28;88556.69;;;-143.16;86.31
14885;BME280;7534;50.762;7.000;2023-04-02T05:30:44;88570.84;;;-143.16;86.38
14885;BME280;7534;50.762;7.000;2023-04-02T05:33:22;88560.75;;;-143.16;86.26
14885;BME280;7534;50.762;7.000;2023-04-02T05:35:57;88556.69;;;-143.16;86.47
14885;BME280;7534;50.762;7.000;2023-04-02T05:38:28;88532.47;;;-143.16;86.40
14885;BME280;7534;50.762;7.000;2023-04-02T05:41:27;88560.75;;;-143.16;86.16
14885;BME280;7534;50.762;7.000;2023-04-02T05:44:09;88534.50;;;-143.16;86.17
14885;BME280;7534;50.762;7.000;2023-04-02T05:46:52;88576.88;;;-143.16;86.21
14885;BME280;7534;50.762;7.000;2023-04-02T05:49:48;88558.72;;;-143.16;86.12
14885;BME280;7534;50.762;7.000;2023-04-02T05:52:21;88584.97;;;-143.16;86.11
14885;BME280;7534;50.762;7.000;2023-04-02T05:57:38;88516.31;;;-143.16;85.94
14885;BME280;7534;50.762;7.000;2023-04-02T06:00:17;88625.34;;;-143.16;85.74
14885;BME280;7534;50.762;7.000;2023-04-02T06:02:59;88595.06;;;-143.16;85.60
14885;BME280;7534;50.762;7.000;2023-04-02T06:05:37;88589.00;;;-143.16;85.32
14885;BME280;7534;50.762;7.000;2023-04-02T06:08:18;88518.34;;;-143.16;85.41
14885;BME280;7534;50.762;7.000;2023-04-02T06:10:57;88562.75;;;-143.16;85.02
14885;BME280;7534;50.762;7.000;2023-04-02T06:13:27;88540.53;;;-143.16;84.77
14885;BME280;7534;50.762;7.000;2023-04-02T06:15:53;88564.78;;;-143.16;84.72
14885;BME280;7534;50.762;7.000;2023-04-02T06:18:28;88580.94;;;-143.16;84.52
14885;BME280;7534;50.762;7.000;2023-04-02T06:20:55;88550.66;;;-143.16;84.85
14885;BME280;7534;50.762;7.000;2023-04-02T06:23:30;88554.69;;;-143.16;84.47
14885;BME280;7534;50.762;7.000;2023-04-02T06:26:08;88621.31;;;-143.16;84.34
14885;BME280;7534;50.762;7.000;2023-04-02T06:28:58;88566.78;;;-143.16;84.42
14885;BME280;7534;50.762;7.000;2023-04-02T06:31:35;88663.69;;;-143.16;84.42
14885;BME280;7534;50.762;7.000;2023-04-02T06:34:05;88621.31;;;-143.16;84.69
14885;BME280;7534;50.762;7.000;2023-04-02T06:36:32;88548.63;;;-143.16;84.55
14885;BME280;7534;50.762;7.000;2023-04-02T06:39:06;88576.88;;;-143.16;84.34
14885;BME280;7534;50.762;7.000;2023-04-02T06:41:33;88601.13;;;-143.16;84.92
14885;BME280;7534;50.762;7.000;2023-04-02T06:44:07;88586.97;;;-143.16;85.35
14885;BME280;7534;50.762;7.000;2023-04-02T06:46:47;88582.94;;;-143.16;84.93
14885;BME280;7534;50.762;7.000;2023-04-02T06:49:21;88566.78;;;-143.16;85.38
14885;BME280;7534;50.762;7.000;2023-04-02T06:51:52;88548.63;;;-143.16;85.16
14885;BME280;7534;50.762;7.000;2023-04-02T06:54:19;88542.56;;;-143.16;84.52
14885;BME280;7534;50.762;7.000;2023-04-02T06:56:51;88584.97;;;-143.16;83.71
14885;BME280;7534;50.762;7.000;2023-04-02T06:59:18;88582.94;;;-143.16;83.74
14885;BME280;7534;50.762;7.000;2023-04-02T07:01:53;88558.72;;;-143.16;84.03
14885;BME280;7534;50.762;7.000;2023-04-02T07:04:22;88597.06;;;-143.16;83.61
14885;BME280;7534;50.762;7.000;2023-04-02T07:06:48;88597.06;;;-143.16;83.20
14885;BME280;7534;50.762;7.000;2023-04-02T07:09:13;88623.31;;;-143.16;83.29
14885;BME280;7534;50.762;7.000;2023-04-02T07:11:39;88584.97;;;-143.16;83.71
14885;BME280;7534;50.762;7.000;2023-04-02T07:14:05;88601.13;;;-143.16;83.93
14885;BME280;7534;50.762;7.000;2023-04-02T07:16:32;88580.94;;;-143.16;84.16
14885;BME280;7534;50.762;7.000;2023-04-02T07:18:59;88520.34;;;-143.16;83.92
14885;BME280;7534;50.762;7.000;2023-04-02T07:21:28;88586.97;;;-143.16;83.84
14885;BME280;7534;50.762;7.000;2023-04-02T07:23:54;88629.38;;;-143.16;84.19
14885;BME280;7534;50.762;7.000;2023-04-02T07:26:25;88601.13;;;-143.16;84.37
14885;BME280;7534;50.762;7.000;2023-04-02T07:28:55;88607.19;;;-143.16;84.37
14885;BME280;7534;50.762;7.000;2023-04-02T07:31:25;88556.69;;;-143.16;84.29
14885;BME280;7534;50.762;7.000;2023-04-02T07:33:54;88597.06;;;-143.16;84.05
14885;BME280;7534;50.762;7.000;2023-04-02T07:36:23;88584.97;;;-143.16;83.64
14885;BME280;7534;50.762;7.000;2023-04-02T07:38:49;88552.66;;;-143.16;84.10
14885;BME280;7534;50.762;7.000;2023-04-02T07:41:16;88582.94;;;-143.16;84.04
14885;BME280;7534;50.762;7.000;2023-04-02T07:43:44;88576.88;;;-143.16;83.62
14885;BME280;7534;50.762;7.000;2023-04-02T07:46:11;88560.75;;;-143.16;83.99
14885;BME280;7534;50.762;7.000;2023-04-02T07:48:39;88584.97;;;-143.16;83.61
14885;BME280;7534;50.762;7.000;2023-04-02T07:51:22;88566.78;;;-143.16;83.61
14885;BME280;7534;50.762;7.000;2023-04-02T07:53:49;88593.03;;;-143.16;84.18
14885;BME280;7534;50.762;7.000;2023-04-02T07:56:18;88607.19;;;-143.16;84.01
14885;BME280;7534;50.762;7.000;2023-04-02T07:58:44;88564.78;;;-143.16;84.06
14885;BME280;7534;50.762;7.000;2023-04-02T08:01:24;88578.91;;;-143.16;83.37
14885;BME280;7534;50.762;7.000;2023-04-02T08:03:55;88623.31;;;-143.16;82.96
14885;BME280;7534;50.762;7.000;2023-04-02T08:06:23;88546.59;;;-143.16;83.20
14885;BME280;7534;50.762;7.000;2023-04-02T08:08:49;88530.47;;;-143.16;83.00
14885;BME280;7534;50.762;7.000;2023-04-02T08:11:15;88574.88;;;-143.16;82.97
14885;BME280;7534;50.762;7.000;2023-04-02T08:13:42;88546.59;;;-143.16;82.92
14885;BME280;7534;50.762;7.000;2023-04-02T08:16:08;88558.72;;;-143.16;83.30
14885;BME280;7534;50.762;7.000;2023-04-02T08:18:35;88609.19;;;-143.16;82.49
14885;BME280;7534;50.762;7.000;2023-04-02T08:21:02;88574.88;;;-143.16;82.62
14885;BME280;7534;50.762;7.000;2023-04-02T08:23:29;88584.97;;;-143.16;82.26
14885;BME280;7534;50.762;7.000;2023-04-02T08:26:17;88568.81;;;-143.16;82.02
14885;BME280;7534;50.762;7.000;2023-04-02T08:28:43;88560.75;;;-143.16;81.94
14885;BME280;7534;50.762;7.000;2023-04-02T08:31:09;88643.50;;;-143.16;81.87
14885;BME280;7534;50.762;7.000;2023-04-02T08:33:35;88568.81;;;-143.16;81.93
14885;BME280;7534;50.762;7.000;2023-04-02T08:36:01;88597.06;;;-143.16;80.11
14885;BME280;7534;50.762;7.000;2023-04-02T08:38:27;88605.16;;;-143.16;79.85
14885;BME280;7534;50.762;7.000;2023-04-02T08:40:58;88605.16;;;-143.16;79.11
14885;BME280;7534;50.762;7.000;2023-04-02T08:44:06;88669.75;;;-143.16;79.28
14885;BME280;7534;50.762;7.000;2023-04-02T08:47:01;88633.41;;;-143.16;79.04
14885;BME280;7534;50.762;7.000;2023-04-02T08:52:01;88572.84;;;-143.16;79.33
14885;BME280;7534;50.762;7.000;2023-04-02T08:54:33;88568.81;;;-143.16;78.65
14885;BME280;7534;50.762;7.000;2023-04-02T08:57:45;88576.88;;;-143.16;77.86
14885;BME280;7534;50.762;7.000;2023-04-02T09:00:38;88609.19;;;-143.16;77.88
14885;BME280;7534;50.762;7.000;2023-04-02T09:05:44;88584.97;;;-143.16;78.77
14885;BME280;7534;50.762;7.000;2023-04-02T09:08:28;88584.97;;;-143.16;78.46
14885;BME280;7534;50.762;7.000;2023-04-02T09:11:24;88637.47;;;-143.16;77.96
14885;BME280;7534;50.762;7.000;2023-04-02T09:13:58;88556.69;;;-143.16;77.20
14885;BME280;7534;50.762;7.000;2023-04-02T09:16:53;88532.47;;;-143.16;76.95
14885;BME280;7534;50.762;7.000;2023-04-02T09:19:35;88514.31;;;-143.16;76.39
14885;BME280;7534;50.762;7.000;2023-04-02T09:22:20;88548.63;;;-143.16;76.40
14885;BME280;7534;50.762;7.000;2023-04-02T09:24:59;88528.44;;;-143.16;75.85
14885;BME280;7534;50.762;7.000;2023-04-02T09:27:33;88536.50;;;-143.16;75.94
14885;BME280;7534;50.762;7.000;2023-04-02T09:30:26;88562.75;;;-143.16;75.47
14885;BME280;7534;50.762;7.000;2023-04-02T09:33:02;88512.28;;;-143.16;75.66
14885;BME280;7534;50.762;7.000;2023-04-02T09:36:06;88506.22;;;-143.16;74.98
14885;BME280;7534;50.762;7.000;2023-04-02T09:38:27;88449.69;;;-143.16;74.34
14885;BME280;7534;50.762;7.000;2023-04-02T09:41:03;88441.63;;;-143.16;73.77
14885;BME280;7534;50.762;7.000;2023-04-02T09:43:36;88518.34;;;-143.16;72.82
14885;BME280;7534;50.762;7.000;2023-04-02T09:46:21;88439.59;;;-143.16;72.64
14885;BME280;7534;50.762;7.000;2023-04-02T09:48:59;88488.06;;;-143.16;72.44
14885;BME280;7534;50.762;7.000;2023-04-02T09:51:28;88492.09;;;-143.16;72.30
14885;BME280;7534;50.762;7.000;2023-04-02T09:54:10;88490.06;;;-143.16;72.39
14885;BME280;7534;50.762;7.000;2023-04-02T09:56:39;88471.91;;;-143.16;71.36
14885;BME280;7534;50.762;7.000;2023-04-02T09:59:18;88510.28;;;-143.16;71.33
14885;BME280;7534;50.762;7.000;2023-04-02T10:01:59;88524.41;;;-143.16;70.17
14885;BME280;7534;50.762;7.000;2023-04-02T10:04:45;88473.94;;;-143.16;70.49
14885;BME280;7534;50.762;7.000;2023-04-02T10:07:38;88580.94;;;-143.16;69.91
14885;BME280;7534;50.762;7.000;2023-04-02T10:10:39;88449.69;;;-143.16;69.99
14885;BME280;7534;50.762;7.000;2023-04-02T10:13:55;88544.59;;;-143.16;69.40
14885;BME280;7534;50.762;7.000;2023-04-02T10:16:35;88469.88;;;-143.16;69.26
14885;BME280;7534;50.762;7.000;2023-04-02T10:19:33;88475.94;;;-143.16;68.84
14885;BME280;7534;50.762;7.000;2023-04-02T10:22:11;88488.06;;;-143.16;69.00
14885;BME280;7534;50.762;7.000;2023-04-02T10:24:39;88469.88;;;-143.16;68.80
14885;BME280;7534;50.762;7.000;2023-04-02T10:27:33;88486.03;;;-143.16;68.09
14885;BME280;7534;50.762;7.000;2023-04-02T10:33:11;88477.97;;;-143.16;67.66
14885;BME280;7534;50.762;7.000;2023-04-02T10:36:06;88484.03;;;-143.16;67.13
14885;BME280;7534;50.762;7.000;2023-04-02T10:39:01;88506.22;;;-143.16;68.47
14885;BME280;7534;50.762;7.000;2023-04-02T10:41:54;88471.91;;;-143.16;68.82
14885;BME280;7534;50.762;7.000;2023-04-02T10:44:43;88484.03;;;-143.16;67.81
14885;BME280;7534;50.762;7.000;2023-04-02T10:47:42;88490.06;;;-143.16;67.12
14885;BME280;7534;50.762;7.000;2023-04-02T10:50:24;88479.97;;;-143.16;66.65
14885;BME280;7534;50.762;7.000;2023-04-02T10:53:36;88528.44;;;-143.16;67.18
14885;BME280;7534;50.762;7.000;2023-04-02T10:55:58;88516.31;;;-143.16;66.83
14885;BME280;7534;50.762;7.000;2023-04-02T10:58:30;88417.41;;;-143.16;65.33
14885;BME280;7534;50.762;7.000;2023-04-02T11:01:05;88445.66;;;-143.16;66.49
14885;BME280;7534;50.762;7.000;2023-04-02T11:03:47;88486.03;;;-143.16;66.88
14885;BME280;7534;50.762;7.000;2023-04-02T11:06:31;88439.59;;;-143.16;67.25
14885;BME280;7534;50.762;7.000;2023-04-02T11:09:06;88471.91;;;-143.16;66.46
14885;BME280;7534;50.762;7.000;2023-04-02T11:11:44;88484.03;;;-143.16;65.77
14885;BME280;7534;50.762;7.000;2023-04-02T11:16:40;88447.69;;;-143.16;65.68
14885;BME280;7534;50.762;7.000;2023-04-02T11:19:26;88461.81;;;-143.16;65.57
14885;BME280;7534;50.762;7.000;2023-04-02T11:21:57;88500.16;;;-143.16;66.02
14885;BME280;7534;50.762;7.000;2023-04-02T11:24:37;88415.38;;;-143.16;65.61
14885;BME280;7534;50.762;7.000;2023-04-02T11:27:40;88370.97;;;-143.16;64.33
14885;BME280;7534;50.762;7.000;2023-04-02T11:30:24;88395.19;;;-143.16;63.54
14885;BME280;7534;50.762;7.000;2023-04-02T11:32:51;88435.56;;;-143.16;63.46
14885;BME280;7534;50.762;7.000;2023-04-02T11:35:36;88413.38;;;-143.16;64.31
14885;BME280;7534;50.762;7.000;2023-04-02T11:40:45;88429.50;;;-143.16;63.88
14885;BME280;7534;50.762;7.000;2023-04-02T11:48:36;88389.13;;;-143.16;62.83
14885;BME280;7534;50.762;7.000;2023-04-02T11:53:52;88368.94;;;-143.16;61.96
14885;BME280;7534;50.762;7.000;2023-04-02T11:56:46;88379.03;;;-143.16;60.38
14885;BME280;7534;50.762;7.000;2023-04-02T12:00:03;88377.03;;;-143.16;60.91
14885;BME280;7534;50.762;7.000;2023-04-02T12:02:59;88403.28;;;-143.16;61.68
14885;BME280;7534;50.762;7.000;2023-04-02T12:05:52;88360.88;;;-143.16;60.92
14885;BME280;7534;50.762;7.000;2023-04-02T12:11:01;88393.19;;;-143.16;60.05
14885;BME280;7534;50.762;7.000;2023-04-02T12:16:07;88389.13;;;-143.16;61.13
14885;BME280;7534;50.762;7.000;2023-04-02T12:18:34;88391.16;;;-143.16;59.94
14885;BME280;7534;50.762;7.000;2023-04-02T12:21:01;88387.13;;;-143.16;60.91
14885;BME280;7534;50.762;7.000;2023-04-02T12:23:31;88383.09;;;-143.16;60.50
14885;BME280;7534;50.762;7.000;2023-04-02T12:26:00;88387.13;;;-143.16;60.40
14885;BME280;7534;50.762;7.000;2023-04-02T12:28:29;88366.94;;;-143.16;58.99
14885;BME280;7534;50.762;7.000;2023-04-02T12:31:13;88403.28;;;-143.16;58.60
14885;BME280;7534;50.762;7.000;2023-04-02T12:33:42;88373.00;;;-143.16;59.69
14885;BME280;7534;50.762;7.000;2023-04-02T12:38:49;88373.00;;;-143.16;58.33
14885;BME280;7534;50.762;7.000;2023-04-02T12:41:35;88391.16;;;-143.16;58.17
14885;BME280;7534;50.762;7.000;2023-04-02T12:44:14;88397.22;;;-143.16;58.49
14885;BME280;7534;50.762;7.000;2023-04-02T12:46:44;88326.56;;;-143.16;58.61
14885;BME280;7534;50.762;7.000;2023-04-02T12:49:32;88439.59;;;-143.16;58.73
14885;BME280;7534;50.762;7.000;2023-04-02T12:52:21;88360.88;;;-143.16;57.43
14885;BME280;7534;50.762;7.000;2023-04-02T12:54:56;88320.50;;;-143.16;56.40
14885;BME280;7534;50.762;7.000;2023-04-02T13:05:48;88340.69;;;-143.16;56.96
14885;BME280;7534;50.762;7.000;2023-04-02T13:08:19;88401.25;;;-143.16;56.85
14885;BME280;7534;50.762;7.000;2023-04-02T13:10:58;88360.88;;;-143.16;57.14
14885;BME280;7534;50.762;7.000;2023-04-02T13:13:44;88377.03;;;-143.16;57.11
14885;BME280;7534;50.762;7.000;2023-04-02T13:18:45;88423.47;;;-143.16;55.12
14885;BME280;7534;50.762;7.000;2023-04-02T13:21:26;88322.53;;;-143.16;55.60
14885;BME280;7534;50.762;7.000;2023-04-02T13:23:52;88306.38;;;-143.16;54.85
14885;BME280;7534;50.762;7.000;2023-04-02T13:26:28;88310.41;;;-143.16;54.83
14885;BME280;7534;50.762;7.000;2023-04-02T13:29:09;88298.28;;;-143.16;55.59
14885;BME280;7534;50.762;7.000;2023-04-02T13:31:42;88300.31;;;-143.16;55.58
14885;BME280;7534;50.762;7.000;2023-04-02T13:34:08;88215.53;;;-143.16;55.36
14885;BME280;7534;50.762;7.000;2023-04-02T13:36:35;88300.31;;;-143.16;54.73
14885;BME280;7534;50.762;7.000;2023-04-02T13:39:03;88324.53;;;-143.16;54.73
14885;BME280;7534;50.762;7.000;2023-04-02T13:41:43;88284.16;;;-143.16;55.60
14885;BME280;7534;50.762;7.000;2023-04-02T13:44:23;88253.88;;;-143.16;53.28
14885;BME280;7534;50.762;7.000;2023-04-02T13:46:58;88282.16;;;-143.16;53.96
14885;BME280;7534;50.762;7.000;2023-04-02T13:49:26;88266.00;;;-143.16;53.17
14885;BME280;7534;50.762;7.000;2023-04-02T13:52:00;88322.53;;;-143.16;54.33
14885;BME280;7534;50.762;7.000;2023-04-02T13:54:56;88310.41;;;-143.16;53.22
14885;BME280;7534;50.762;7.000;2023-04-02T13:57:26;88306.38;;;-143.16;53.51
14885;BME280;7534;50.762;7.000;2023-04-02T13:59:51;88318.47;;;-143.16;54.48
14885;BME280;7534;50.762;7.000;2023-04-02T14:02:21;88338.66;;;-143.16;54.91
14885;BME280;7534;50.762;7.000;2023-04-02T14:11:22;88358.84;;;-143.16;54.54
14885;BME280;7534;50.762;7.000;2023-04-02T14:25:56;88381.06;;;-143.16;56.01
14885;BME280;7534;50.762;7.000;2023-04-02T14:28:50;88383.09;;;-143.16;55.50
14885;BME280;7534;50.762;7.000;2023-04-02T14:31:43;88451.72;;;-143.16;55.52
14885;BME280;7534;50.762;7.000;2023-04-02T14:37:51;88425.47;;;-143.16;54.93
14885;BME280;7534;50.762;7.000;2023-04-02T14:40:28;88364.91;;;-143.16;54.63
14885;BME280;7534;50.762;7.000;2023-04-02T14:43:15;88387.13;;;-143.16;55.49
14885;BME280;7534;50.762;7.000;2023-04-02T14:46:02;88415.38;;;-143.16;54.72
14885;BME280;7534;50.762;7.000;2023-04-02T14:48:53;88334.63;;;-143.16;54.32
14885;BME280;7534;50.762;7.000;2023-04-02T14:51:35;88401.25;;;-143.16;53.97
14885;BME280;7534;50.762;7.000;2023-04-02T14:54:33;88389.13;;;-143.16;54.13
14885;BME280;7534;50.762;7.000;2023-04-02T14:57:21;88419.41;;;-143.16;55.03
14885;BME280;7534;50.762;7.000;2023-04-02T14:59:57;88455.75;;;-143.16;54.50
14885;BME280;7534;50.762;7.000;2023-04-02T15:02:45;88368.94;;;-143.16;54.89
14885;BME280;7534;50.762;7.000;2023-04-02T15:05:38;88375.00;;;-143.16;54.48
14885;BME280;7534;50.762;7.000;2023-04-02T15:08:26;88336.66;;;-143.16;53.71
14885;BME280;7534;50.762;7.000;2023-04-02T15:11:10;88431.53;;;-143.16;54.43
14885;BME280;7534;50.762;7.000;2023-04-02T15:13:59;88475.94;;;-143.16;53.66
14885;BME280;7534;50.762;7.000;2023-04-02T15:16:26;88459.78;;;-143.16;54.15
14885;BME280;7534;50.762;7.000;2023-04-02T15:18:58;88437.59;;;-143.16;54.24
14885;BME280;7534;50.762;7.000;2023-04-02T15:21:59;88463.84;;;-143.16;54.37
14885;BME280;7534;50.762;7.000;2023-04-02T15:27:47;88482.00;;;-143.16;53.88
14885;BME280;7534;50.762;7.000;2023-04-02T15:30:25;88457.78;;;-143.16;54.33
14885;BME280;7534;50.762;7.000;2023-04-02T15:42:16;88461.81;;;-143.16;52.10
14885;BME280;7534;50.762;7.000;2023-04-02T15:48:10;88486.03;;;-143.16;51.15
14885;BME280;7534;50.762;7.000;2023-04-02T15:53:45;88518.34;;;-143.16;51.77